Aérodrome :
LOGIN :

S'inscrire | Disclaimer

   EN    FR    IT 

 










Légende :    VFR   VFR Marginal   IFR   IFR Intensif   IFR Très Intensif
Visi : 
Plafond : 
>= 8 km
>= 3000ft
5 à 8 km
1000 à 3000 ft
1500m à 5 km
500 à 1000 ft
800 à 1500m
200 à 500 ft
< 800m
< 200 ft
Symboles :   Orages  Brouillard  Fortes neiges  Fortes précipitations  Vent > 20 kt
SIGMETs :   Divers  Orages  Givrage  Turbulence  Onde Orograph.  Cendres Volcan.






- Altitude de l'aérodrome : 19 ft
- Code IATA : BEB


EGPL - Benbecula

DERNIER METAR :
  • 080620Z 01010KT 5000 -RA BKN004 06/06 Q1019 REDZ

METARs EXPIRÉS :
  • 080550Z AUTO 01010KT 3400 -RA OVC003/// 06/06 Q1019 REDZ
  • 080520Z AUTO 26008KT 240V310 1900 DZ OVC002/// 09/08 Q1019
  • 080450Z AUTO 22015KT 4800 -DZ OVC002/// 09/09 Q1018
  • 080420Z AUTO 21015KT 5000 -RA OVC002/// 09/08 Q1018
  • 080350Z AUTO 21016KT 5000 -DZ OVC002/// 09/08 Q1019 RERA

TAF TAF EGPL
Valide du 08 à 06h jusqu'au 08 à 15h UTC


080500Z 0806/0815 20017KT 5000 -RA BKN002
BECMG 0806/0808 02009KT SCT030
PROB30
TEMPO 0806/0807 3000 DZ
ATIS : +44 1870 604 818



MET'MAP, la Météo Aéronautique d'un coup d'oeil ! - Copyright ORBIFLY Décembre 2007 - Disclaimer

ORBIFLY MET'MAP TEAM :

Programmation & Développement : Alexandra Zaïnal
Sur une idée originale de : Baudouin d'Aumeries
Assistance à la programmation : Marc-Olivier Méhu
Soutien technique & logistique : Manuel Goepfert

Contact : metmap@orbifly.com




SOURCES & CREDITS :

   NOAA